Time;durP1;ratioP1;P1;durP2;ratioP2;P2;SDS_P1;SDS_P2;PMS_P1;PMS_P2;Temp;Humidity;BMP_temperature;BMP_pressure;BME280_temperature;BME280_humidity;BME280_pressure;Samples;Min_cycle;Max_cycle;Signal;HPM_P1;HPM_P2
2022/12/15 00:40:59;;;;;;;34.83;16.60;;;-7.20;99.90;;;;;;5000057;28;20057;-78
2022/12/15 00:43:29;;;;;;;38.85;17.20;;;-7.20;99.90;;;;;;4981512;28;20129;-77
2022/12/15 00:48:39;;;;;;;37.35;18.55;;;-7.50;99.90;;;;;;4996518;28;20510;-79
2022/12/15 00:51:05;;;;;;;38.22;17.20;;;-7.60;99.90;;;;;;4983147;28;20121;-79
2022/12/15 01:21:00;;;;;;;37.13;16.13;;;-7.30;99.90;;;;;;4966936;28;20046;-79
2022/12/15 01:23:25;;;;;;;29.55;15.38;;;-7.10;99.90;;;;;;4981231;28;20092;-78
2022/12/15 01:25:51;;;;;;;34.22;16.73;;;-7.30;99.90;;;;;;4979079;28;20027;-79
2022/12/15 01:28:18;;;;;;;36.10;16.00;;;-7.30;99.90;;;;;;4982079;28;20134;-79
2022/12/15 01:30:43;;;;;;;32.30;14.85;;;-7.40;99.90;;;;;;4965577;28;20041;-79
2022/12/15 01:33:09;;;;;;;30.55;15.05;;;-7.40;99.90;;;;;;4981404;28;20042;-79
2022/12/15 01:35:34;;;;;;;30.35;15.20;;;-7.40;99.90;;;;;;4964406;28;20122;-79
2022/12/15 01:38:00;;;;;;;36.85;15.18;;;-7.20;99.90;;;;;;4981204;28;20381;-79
2022/12/15 01:40:44;;;;;;;30.73;14.73;;;-7.00;99.90;;;;;;4981529;28;20026;-78
2022/12/15 01:43:33;;;;;;;31.48;15.23;;;-7.10;99.90;;;;;;4968457;28;20113;-79
2022/12/15 01:46:05;;;;;;;34.25;17.25;;;-7.20;99.90;;;;;;4977777;28;20436;-79
2022/12/15 01:48:47;;;;;;;31.23;16.13;;;-7.30;99.90;;;;;;4996459;28;20153;-79
2022/12/15 01:51:17;;;;;;;33.47;15.30;;;-7.40;99.90;;;;;;4965696;28;20113;-79
2022/12/15 01:53:54;;;;;;;37.08;16.38;;;-7.30;99.90;;;;;;4992816;28;20038;-79
2022/12/15 01:56:19;;;;;;;32.25;14.65;;;-7.30;99.90;;;;;;4997765;28;20030;-78
2022/12/15 01:58:46;;;;;;;33.10;15.57;;;-7.30;99.90;;;;;;4960921;28;20049;-79
2022/12/15 02:01:12;;;;;;;33.28;14.80;;;-7.10;99.90;;;;;;4980814;28;20493;-79
2022/12/15 02:03:37;;;;;;;33.95;15.07;;;-7.20;99.90;;;;;;4964746;28;20033;-79
2022/12/15 02:06:03;;;;;;;33.72;15.75;;;-7.30;99.90;;;;;;4980844;28;20101;-79
2022/12/15 02:08:29;;;;;;;27.70;11.30;;;-7.30;99.90;;;;;;4996995;28;20069;-79
2022/12/15 02:11:30;;;;;;;35.85;17.48;;;-7.30;99.90;;;;;;4964783;28;20035;-80
2022/12/15 02:13:58;;;;;;;36.88;16.38;;;-7.10;99.90;;;;;;4979905;28;20112;-79
2022/12/15 02:16:46;;;;;;;32.85;15.25;;;-7.20;99.90;;;;;;4996695;28;20041;-79
2022/12/15 02:19:23;;;;;;;31.48;15.23;;;-7.20;99.90;;;;;;4992868;28;20270;-79
2022/12/15 02:22:06;;;;;;;31.63;15.75;;;-7.20;99.90;;;;;;4980838;28;20046;-79
2022/12/15 02:24:32;;;;;;;34.45;16.58;;;-7.30;99.90;;;;;;4977211;28;20249;-79
2022/12/15 02:27:05;;;;;;;30.92;16.13;;;-7.50;99.90;;;;;;4982320;28;20345;-79
2022/12/15 02:30:04;;;;;;;30.00;15.35;;;-7.50;99.90;;;;;;4980343;28;20057;-79
2022/12/15 02:32:33;;;;;;;28.05;12.10;;;-7.50;99.90;;;;;;4983632;28;20034;-80
2022/12/15 02:35:04;;;;;;;31.88;15.02;;;-7.00;99.90;;;;;;4968448;28;20085;-79
2022/12/15 02:37:32;;;;;;;39.95;16.42;;;-6.90;99.90;;;;;;4967873;28;20453;-79
2022/12/15 02:39:57;;;;;;;29.05;15.40;;;-7.10;99.90;;;;;;4969247;28;20160;-80
2022/12/15 02:42:23;;;;;;;36.30;14.52;;;-7.10;99.90;;;;;;5002363;28;20525;-79
2022/12/15 02:44:54;;;;;;;34.90;16.00;;;-7.20;99.90;;;;;;4983569;28;20554;-80
2022/12/15 02:47:44;;;;;;;31.85;16.08;;;-7.40;99.90;;;;;;4950488;28;20031;-79
2022/12/15 02:50:28;;;;;;;36.83;17.13;;;-7.50;99.90;;;;;;4985651;28;20452;-80
2022/12/15 02:53:11;;;;;;;33.30;15.43;;;-7.60;99.90;;;;;;4983473;28;20108;-79
2022/12/15 02:55:57;;;;;;;39.80;16.25;;;-7.60;99.90;;;;;;4984605;28;20049;-79
2022/12/15 02:58:29;;;;;;;29.38;13.68;;;-7.40;99.90;;;;;;4968971;28;20034;-80
2022/12/15 03:00:58;;;;;;;31.92;15.15;;;-7.40;99.90;;;;;;4984137;28;20038;-80
2022/12/15 03:03:24;;;;;;;37.25;16.13;;;-7.50;99.90;;;;;;4981451;28;20034;-80
2022/12/15 03:05:53;;;;;;;33.92;16.88;;;-7.50;99.90;;;;;;4967996;28;20080;-80
2022/12/15 03:08:19;;;;;;;32.83;15.45;;;-7.50;99.90;;;;;;5000806;28;20026;-80
2022/12/15 03:10:45;;;;;;;34.58;15.82;;;-7.50;99.90;;;;;;4984095;28;20038;-79
2022/12/15 03:13:11;;;;;;;37.10;16.83;;;-7.60;99.90;;;;;;5001341;28;20130;-80
2022/12/15 03:15:37;;;;;;;33.17;15.70;;;-7.70;99.90;;;;;;4999547;28;20038;-80
2022/12/15 03:18:02;;;;;;;37.25;16.38;;;-7.60;99.90;;;;;;4967045;28;20023;-81
2022/12/15 03:20:28;;;;;;;41.58;17.02;;;-7.50;99.90;;;;;;4983176;28;20551;-80
2022/12/15 03:22:53;;;;;;;36.95;16.20;;;-7.40;99.90;;;;;;4970291;28;20026;-80
2022/12/15 03:25:19;;;;;;;29.70;13.23;;;-7.40;99.90;;;;;;4967561;28;20054;-80
2022/12/15 03:27:45;;;;;;;30.80;13.43;;;-7.30;99.90;;;;;;4999683;28;20471;-80
2022/12/15 03:30:11;;;;;;;29.10;13.18;;;-7.10;99.90;;;;;;5000848;28;20023;-81
2022/12/15 03:32:36;;;;;;;29.15;13.05;;;-7.00;99.90;;;;;;4980573;28;20077;-80
2022/12/15 03:35:02;;;;;;;27.23;14.50;;;-6.90;99.90;;;;;;4982813;28;20513;-81
2022/12/15 03:37:28;;;;;;;37.25;15.57;;;-7.10;99.90;;;;;;5001997;28;20038;-81
2022/12/15 03:39:54;;;;;;;24.08;11.10;;;-7.20;99.90;;;;;;4968524;28;20034;-76
2022/12/15 03:42:47;;;;;;;27.83;11.98;;;-7.20;99.90;;;;;;4984980;28;20109;-76
2022/12/15 03:45:05;;;;;;;34.45;15.73;;;-7.10;99.90;;;;;;4981856;28;20030;-76
2022/12/15 03:47:30;;;;;;;22.38;12.40;;;-7.00;99.90;;;;;;4983750;28;20041;-76
2022/12/15 03:49:56;;;;;;;32.28;14.18;;;-7.00;99.90;;;;;;4968429;28;20033;-76
2022/12/15 03:52:22;;;;;;;34.28;14.88;;;-7.00;99.90;;;;;;4999998;28;20034;-76
2022/12/15 03:54:47;;;;;;;31.90;15.18;;;-7.00;99.90;;;;;;4995646;28;20042;-76
2022/12/15 03:57:13;;;;;;;28.38;14.50;;;-7.00;99.90;;;;;;4966778;28;20378;-76
2022/12/15 03:59:38;;;;;;;29.85;14.80;;;-7.00;99.90;;;;;;4995724;28;20088;-77
2022/12/15 04:02:04;;;;;;;32.72;15.13;;;-7.00;99.90;;;;;;4969746;28;20134;-76
2022/12/15 04:04:29;;;;;;;30.20;14.10;;;-6.90;99.90;;;;;;4966122;28;20049;-76
2022/12/15 04:06:55;;;;;;;38.38;16.33;;;-7.00;99.90;;;;;;4967293;28;20418;-77
2022/12/15 04:09:20;;;;;;;32.47;14.68;;;-7.10;99.90;;;;;;4986037;28;20065;-76
2022/12/15 04:11:46;;;;;;;32.78;14.85;;;-7.20;99.90;;;;;;4982829;28;20050;-76
2022/12/15 04:14:11;;;;;;;34.15;14.35;;;-7.20;99.90;;;;;;4969200;28;20061;-76
2022/12/15 04:16:37;;;;;;;30.65;15.88;;;-7.00;99.90;;;;;;4985495;28;20464;-77
2022/12/15 04:21:47;;;;;;;33.50;14.82;;;-7.10;99.90;;;;;;4988849;28;20065;-76
2022/12/15 05:32:36;;;;;;;31.42;15.82;;;-7.40;99.90;;;;;;4981515;28;20565;-76
2022/12/15 05:35:02;;;;;;;39.33;18.27;;;-7.40;99.90;;;;;;4982869;28;20042;-76
2022/12/15 05:37:28;;;;;;;37.83;17.17;;;-7.40;99.90;;;;;;4966624;28;20031;-76
2022/12/15 05:39:53;;;;;;;42.35;15.65;;;-7.30;99.90;;;;;;4982354;28;20042;-76
2022/12/15 05:42:19;;;;;;;33.83;14.63;;;-7.20;99.90;;;;;;4967891;28;20191;-76
2022/12/15 05:44:44;;;;;;;33.70;15.02;;;-7.10;99.90;;;;;;4999271;28;20050;-77
2022/12/15 05:47:10;;;;;;;28.73;13.00;;;-7.00;99.90;;;;;;4982691;28;20548;-77
2022/12/15 05:49:36;;;;;;;36.67;15.77;;;-7.00;99.90;;;;;;4967025;28;20031;-77
2022/12/15 05:52:01;;;;;;;29.85;13.25;;;-7.00;99.90;;;;;;4966389;28;20552;-76
2022/12/15 05:54:27;;;;;;;27.65;14.07;;;-7.00;99.90;;;;;;4964258;28;20050;-77
2022/12/15 05:56:52;;;;;;;38.78;17.08;;;-7.00;99.90;;;;;;4979261;28;20070;-76
2022/12/15 05:59:18;;;;;;;32.38;15.65;;;-6.90;99.90;;;;;;4981242;28;20413;-76
2022/12/15 06:01:43;;;;;;;31.20;15.77;;;-7.00;99.90;;;;;;4981888;28;20393;-76
2022/12/15 06:04:12;;;;;;;31.00;13.73;;;-7.00;99.90;;;;;;4999475;28;20030;-76
2022/12/15 06:06:38;;;;;;;36.90;16.92;;;-6.90;99.90;;;;;;4965779;28;20046;-77
2022/12/15 06:09:04;;;;;;;32.58;15.45;;;-6.90;99.90;;;;;;4982301;28;20539;-77
2022/12/15 06:11:29;;;;;;;33.85;16.63;;;-6.90;99.90;;;;;;4979124;28;20106;-77
2022/12/15 06:13:56;;;;;;;28.13;13.43;;;-6.90;99.90;;;;;;4966907;28;20069;-77
2022/12/15 06:16:23;;;;;;;31.98;14.57;;;-6.90;99.90;;;;;;4966470;28;20034;-76
2022/12/15 06:18:50;;;;;;;44.95;19.30;;;-6.90;99.90;;;;;;4984227;28;20041;-77
2022/12/15 06:21:20;;;;;;;33.35;17.83;;;-6.90;99.90;;;;;;4968134;28;20065;-77
2022/12/15 06:23:46;;;;;;;32.40;15.27;;;-6.90;99.90;;;;;;4980526;28;20073;-77
2022/12/15 06:26:19;;;;;;;39.45;18.52;;;-6.90;99.90;;;;;;4967941;28;20038;-77
2022/12/15 06:28:45;;;;;;;42.03;19.13;;;-6.90;99.90;;;;;;4983100;28;20504;-77
2022/12/15 06:31:11;;;;;;;48.50;18.73;;;-7.10;99.90;;;;;;4968772;28;20030;-76
2022/12/15 06:33:36;;;;;;;33.40;15.63;;;-7.10;99.90;;;;;;4986811;28;20030;-76
2022/12/15 06:36:07;;;;;;;30.85;15.10;;;-7.20;99.90;;;;;;4968152;28;20045;-77
2022/12/15 06:38:33;;;;;;;36.10;16.83;;;-7.00;99.90;;;;;;4983100;28;20045;-77
2022/12/15 06:40:59;;;;;;;36.88;18.48;;;-6.90;99.90;;;;;;5000251;28;20035;-76
2022/12/15 06:43:28;;;;;;;42.22;19.58;;;-7.10;99.90;;;;;;4965727;28;20027;-77
2022/12/15 06:45:53;;;;;;;37.30;17.33;;;-7.30;99.90;;;;;;4980693;28;20450;-76
2022/12/15 06:48:19;;;;;;;40.83;18.98;;;-7.40;99.90;;;;;;4947671;28;20112;-76
2022/12/15 06:50:45;;;;;;;38.20;17.73;;;-7.40;99.90;;;;;;4982200;28;20058;-76
2022/12/15 06:53:14;;;;;;;35.17;18.02;;;-7.40;99.90;;;;;;4965562;28;20038;-77
2022/12/15 06:55:39;;;;;;;40.38;18.17;;;-7.40;99.90;;;;;;4964810;28;20145;-77
2022/12/15 06:58:05;;;;;;;37.95;17.40;;;-7.30;99.90;;;;;;4965797;28;20433;-77
2022/12/15 07:00:32;;;;;;;39.10;17.98;;;-7.20;99.90;;;;;;4982394;28;20030;-76
2022/12/15 07:02:58;;;;;;;31.30;15.30;;;-7.20;99.90;;;;;;4967754;28;20120;-76
2022/12/15 07:05:23;;;;;;;29.52;13.57;;;-7.10;99.90;;;;;;4998439;28;20093;-76
2022/12/15 07:07:50;;;;;;;30.60;14.02;;;-7.10;99.90;;;;;;4979575;28;20074;-76
2022/12/15 07:10:16;;;;;;;37.50;16.77;;;-7.00;99.90;;;;;;4980332;28;20075;-76
2022/12/15 07:12:42;;;;;;;27.92;12.80;;;-7.00;99.90;;;;;;4978876;28;20065;-77
2022/12/15 07:15:08;;;;;;;34.70;16.17;;;-7.00;99.90;;;;;;4961991;28;20073;-76
2022/12/15 07:17:36;;;;;;;27.67;13.38;;;-7.00;99.90;;;;;;4964231;28;20121;-77
2022/12/15 07:20:05;;;;;;;33.40;16.20;;;-7.10;99.90;;;;;;4966938;28;20568;-77
2022/12/15 07:22:30;;;;;;;29.27;14.77;;;-7.00;99.90;;;;;;4950958;28;20022;-76
2022/12/15 07:24:56;;;;;;;29.45;14.73;;;-7.00;99.90;;;;;;4981489;28;20037;-76
2022/12/15 07:27:21;;;;;;;37.25;16.55;;;-6.90;99.90;;;;;;5000423;28;20397;-77
2022/12/15 07:29:47;;;;;;;37.40;16.92;;;-6.90;99.90;;;;;;4967175;28;20034;-76
2022/12/15 07:32:12;;;;;;;31.90;15.85;;;-7.00;99.90;;;;;;4968193;28;20034;-76
2022/12/15 07:34:38;;;;;;;32.25;14.85;;;-7.00;99.90;;;;;;4963247;28;20018;-77
2022/12/15 07:37:03;;;;;;;33.92;14.25;;;-6.80;99.90;;;;;;4968235;28;20084;-77
2022/12/15 07:39:29;;;;;;;31.65;16.25;;;-6.70;99.90;;;;;;4999994;28;20042;-78
2022/12/15 07:41:55;;;;;;;34.85;15.40;;;-6.80;99.90;;;;;;4982496;28;20368;-77
2022/12/15 07:44:20;;;;;;;29.80;13.70;;;-6.90;99.90;;;;;;4983149;28;20033;-77
2022/12/15 07:46:47;;;;;;;22.75;12.30;;;-6.80;99.90;;;;;;4967386;28;20033;-77
2022/12/15 07:49:14;;;;;;;39.47;19.23;;;-6.80;99.90;;;;;;5000522;28;20702;-77
2022/12/15 07:51:40;;;;;;;30.33;14.13;;;-6.90;99.90;;;;;;4980585;28;20046;-77
2022/12/15 07:54:06;;;;;;;30.27;15.23;;;-6.80;99.90;;;;;;4982234;28;20089;-77
2022/12/15 07:56:31;;;;;;;28.88;13.20;;;-6.80;99.90;;;;;;4965810;28;20066;-78
2022/12/15 07:58:57;;;;;;;31.38;15.50;;;-6.70;99.90;;;;;;4999583;28;20039;-78
2022/12/15 08:01:23;;;;;;;31.40;15.20;;;-6.60;99.90;;;;;;4968408;28;20050;-77
2022/12/15 08:03:49;;;;;;;27.88;13.30;;;-6.80;99.90;;;;;;4967538;28;20076;-77
2022/12/15 08:06:14;;;;;;;26.33;12.50;;;-6.80;99.90;;;;;;4998437;28;20035;-79
2022/12/15 08:08:40;;;;;;;35.58;18.02;;;-6.60;99.90;;;;;;4967585;28;20026;-77
2022/12/15 08:11:10;;;;;;;29.52;14.32;;;-6.60;99.90;;;;;;4983069;28;20045;-77
2022/12/15 08:13:36;;;;;;;34.95;16.13;;;-6.60;99.90;;;;;;4983194;28;20133;-78
2022/12/15 08:16:01;;;;;;;31.67;13.77;;;-6.60;99.90;;;;;;4962442;28;20081;-77
2022/12/15 08:18:27;;;;;;;34.03;16.60;;;-6.40;99.90;;;;;;4964882;28;20050;-77
2022/12/15 08:20:52;;;;;;;31.30;14.50;;;-6.30;99.90;;;;;;4969222;28;20085;-78
2022/12/15 08:23:18;;;;;;;35.25;16.25;;;-6.30;99.90;;;;;;4983603;28;20034;-77
2022/12/15 08:25:44;;;;;;;31.88;14.82;;;-6.30;99.90;;;;;;4984495;28;20061;-77
2022/12/15 08:28:09;;;;;;;46.78;18.77;;;-6.30;99.90;;;;;;4999739;28;20058;-77
2022/12/15 08:30:35;;;;;;;33.28;15.60;;;-6.20;99.90;;;;;;4947549;28;20030;-77
2022/12/15 08:33:01;;;;;;;36.13;18.08;;;-6.20;99.90;;;;;;4981035;28;20035;-77
2022/12/15 08:35:27;;;;;;;44.22;19.52;;;-6.30;99.90;;;;;;4966755;28;20114;-78
2022/12/15 08:37:53;;;;;;;39.42;18.67;;;-6.30;99.90;;;;;;4967009;28;20117;-78
2022/12/15 08:40:18;;;;;;;39.35;17.52;;;-6.10;99.90;;;;;;4966139;28;20704;-77
2022/12/15 08:42:44;;;;;;;35.22;16.10;;;-6.00;99.90;;;;;;4983848;28;20063;-77
2022/12/15 08:45:11;;;;;;;36.90;18.45;;;-6.00;99.90;;;;;;4983836;28;20520;-78
2022/12/15 08:47:37;;;;;;;36.38;16.90;;;-5.90;99.90;;;;;;4963965;28;20058;-78
2022/12/15 08:50:04;;;;;;;31.63;15.05;;;-5.70;99.90;;;;;;4950163;28;20054;-79
2022/12/15 08:52:30;;;;;;;27.35;13.55;;;-5.60;99.90;;;;;;4966457;28;20042;-79
2022/12/15 08:54:56;;;;;;;33.50;15.40;;;-5.50;99.90;;;;;;4997807;28;20038;-78
2022/12/15 08:57:21;;;;;;;32.20;14.10;;;-5.60;99.90;;;;;;4999374;28;20118;-78
2022/12/15 08:59:47;;;;;;;29.98;15.07;;;-5.40;99.90;;;;;;4982166;28;20054;-77
2022/12/15 09:02:12;;;;;;;39.00;17.83;;;-5.30;99.90;;;;;;4981659;28;20053;-77
2022/12/15 09:04:39;;;;;;;41.08;18.63;;;-5.20;99.90;;;;;;4980990;28;20494;-78
2022/12/15 09:07:05;;;;;;;42.28;19.77;;;-5.30;99.90;;;;;;4951250;28;20073;-77
2022/12/15 09:09:30;;;;;;;33.88;15.95;;;-5.20;99.90;;;;;;4983872;28;20413;-78
2022/12/15 09:11:56;;;;;;;34.72;15.43;;;-5.10;99.90;;;;;;4967409;28;20426;-78
2022/12/15 09:14:21;;;;;;;28.00;14.50;;;-4.90;99.90;;;;;;4999723;28;20136;-78
2022/12/15 09:16:47;;;;;;;32.20;15.05;;;-4.80;99.90;;;;;;4980452;28;20050;-77
2022/12/15 09:19:13;;;;;;;30.35;15.25;;;-4.70;99.90;;;;;;4966809;28;20112;-78
2022/12/15 09:21:38;;;;;;;28.90;13.52;;;-4.60;99.90;;;;;;5000146;28;20045;-78
2022/12/15 09:24:04;;;;;;;33.30;15.75;;;-4.50;99.90;;;;;;4969006;28;20034;-77
2022/12/15 09:26:32;;;;;;;31.75;14.93;;;-4.30;99.90;;;;;;4989252;28;20034;-76
2022/12/15 09:28:57;;;;;;;41.42;19.35;;;-4.00;99.90;;;;;;4966810;28;20039;-76
2022/12/15 09:31:27;;;;;;;37.22;16.73;;;-4.00;99.90;;;;;;4968249;28;20081;-77
2022/12/15 09:33:53;;;;;;;35.53;13.95;;;-3.90;99.90;;;;;;4949889;28;20544;-77
2022/12/15 09:36:18;;;;;;;41.78;19.70;;;-3.80;99.90;;;;;;5000206;28;20030;-77
2022/12/15 09:38:44;;;;;;;38.78;18.50;;;-3.60;99.90;;;;;;4979618;28;20054;-77
2022/12/15 09:41:23;;;;;;;31.38;12.05;;;-3.50;99.90;;;;;;4979323;28;20442;-77
2022/12/15 09:44:06;;;;;;;32.92;15.25;;;-3.50;99.90;;;;;;4966146;28;20041;-77
2022/12/15 09:46:47;;;;;;;38.22;17.52;;;-3.30;99.90;;;;;;4978126;28;20489;-77
2022/12/15 09:49:18;;;;;;;34.95;17.33;;;-3.20;99.90;;;;;;4964987;28;20069;-77
2022/12/15 09:51:58;;;;;;;34.85;16.73;;;-3.10;99.90;;;;;;4983035;28;20030;-76
2022/12/15 09:54:23;;;;;;;35.60;15.40;;;-2.90;99.90;;;;;;4981996;28;20114;-77
2022/12/15 09:56:52;;;;;;;32.03;13.18;;;-3.00;99.90;;;;;;4966998;28;20161;-77
2022/12/15 09:59:39;;;;;;;38.35;16.20;;;-2.90;99.90;;;;;;4948646;28;20097;-77
2022/12/15 10:02:28;;;;;;;32.90;15.13;;;-2.60;99.90;;;;;;4978333;28;20038;-77
2022/12/15 10:05:00;;;;;;;47.55;20.58;;;-2.50;99.90;;;;;;4987693;28;20046;-77
2022/12/15 10:07:29;;;;;;;44.65;20.80;;;-2.50;99.90;;;;;;4998095;28;20541;-77
2022/12/15 10:09:55;;;;;;;36.70;17.13;;;-2.20;99.90;;;;;;4966194;28;20542;-77
2022/12/15 10:12:28;;;;;;;42.45;21.77;;;-2.20;99.90;;;;;;4981956;28;20041;-76
2022/12/15 10:15:05;;;;;;;26.58;14.45;;;-2.30;99.90;;;;;;4995467;28;20570;-77
2022/12/15 10:18:05;;;;;;;32.13;15.20;;;-2.30;99.90;;;;;;4965616;28;20486;-76
2022/12/15 10:20:30;;;;;;;40.05;15.30;;;-2.00;99.90;;;;;;4977672;28;20498;-77
2022/12/15 10:22:58;;;;;;;37.22;16.55;;;-1.80;99.90;;;;;;4978788;28;20038;-78
2022/12/15 10:25:25;;;;;;;37.53;17.75;;;-1.70;99.90;;;;;;4982988;28;20555;-78
2022/12/15 10:28:06;;;;;;;41.47;18.35;;;-1.50;99.90;;;;;;4982119;28;20497;-77
2022/12/15 10:30:34;;;;;;;35.40;16.25;;;-1.40;99.90;;;;;;4981591;28;20113;-78
2022/12/15 10:33:21;;;;;;;45.85;20.27;;;-1.50;99.90;;;;;;4980662;28;20376;-77
2022/12/15 10:35:47;;;;;;;27.42;14.27;;;-1.50;99.90;;;;;;4980181;28;20058;-77
2022/12/15 10:38:36;;;;;;;26.20;12.70;;;-1.10;99.90;;;;;;4982789;28;20523;-78
2022/12/15 10:41:16;;;;;;;29.90;14.38;;;-0.90;99.90;;;;;;4976603;28;20101;-77
2022/12/15 10:43:43;;;;;;;38.92;16.83;;;-0.70;99.90;;;;;;4965703;28;20030;-78
2022/12/15 10:46:25;;;;;;;38.47;16.15;;;-0.30;99.90;;;;;;4950841;28;20493;-77
2022/12/15 10:48:55;;;;;;;33.70;14.90;;;-0.30;99.90;;;;;;4971490;28;20030;-78
2022/12/15 10:51:25;;;;;;;35.30;17.15;;;-0.20;99.90;;;;;;4982044;28;20493;-78
2022/12/15 10:54:14;;;;;;;33.78;17.25;;;-0.10;99.90;;;;;;5000030;28;20038;-77
2022/12/15 10:56:48;;;;;;;43.63;19.25;;;-0.10;99.90;;;;;;4956979;28;20026;-78
2022/12/15 10:59:32;;;;;;;36.67;16.02;;;0.10;99.90;;;;;;4984338;28;20101;-78
2022/12/15 11:02:35;;;;;;;36.15;16.60;;;0.30;99.90;;;;;;4982012;28;20041;-78
2022/12/15 11:05:14;;;;;;;43.90;19.80;;;0.70;99.90;;;;;;4951826;28;20495;-78
2022/12/15 11:08:12;;;;;;;49.33;23.95;;;0.70;99.90;;;;;;4980926;28;20387;-78
2022/12/15 11:13:21;;;;;;;47.25;19.67;;;1.10;99.90;;;;;;4970954;28;20093;-78
2022/12/15 11:15:51;;;;;;;42.03;19.38;;;1.10;99.90;;;;;;4985586;28;20076;-78
2022/12/15 11:18:48;;;;;;;37.10;17.58;;;1.30;99.90;;;;;;4970866;28;20038;-79
2022/12/15 11:21:27;;;;;;;59.35;28.05;;;1.60;99.90;;;;;;4967390;28;20113;-78
2022/12/15 11:24:20;;;;;;;64.15;28.20;;;1.00;99.90;;;;;;4983248;28;20034;-79
2022/12/15 11:26:46;;;;;;;46.95;19.42;;;0.40;99.90;;;;;;4981695;28;20039;-79
2022/12/15 11:29:23;;;;;;;44.25;20.33;;;1.00;99.90;;;;;;4985319;28;20096;-79
2022/12/15 11:31:52;;;;;;;45.55;19.30;;;1.40;99.90;;;;;;4966863;28;20043;-79
2022/12/15 11:34:25;;;;;;;36.30;17.58;;;2.00;99.90;;;;;;4969821;28;20056;-80
2022/12/15 11:37:16;;;;;;;38.35;18.52;;;2.10;99.90;;;;;;4985361;28;20815;-79
2022/12/15 11:40:22;;;;;;;30.27;13.70;;;1.90;99.90;;;;;;4981131;28;20085;-79
2022/12/15 11:43:07;;;;;;;44.28;19.45;;;2.00;99.90;;;;;;4970572;28;22044;-79
2022/12/15 11:45:55;;;;;;;37.13;18.63;;;2.50;99.90;;;;;;4969116;28;20055;-79
2022/12/15 11:48:21;;;;;;;50.70;24.67;;;2.10;99.90;;;;;;4982743;28;20113;-78
2022/12/15 11:50:55;;;;;;;57.88;28.40;;;1.90;99.90;;;;;;4968027;28;20145;-78
2022/12/15 11:53:34;;;;;;;57.15;27.52;;;1.30;99.90;;;;;;5000698;28;20674;-78
2022/12/15 11:56:24;;;;;;;64.75;31.05;;;1.80;99.90;;;;;;4978892;28;20035;-78
2022/12/15 11:59:19;;;;;;;39.92;19.92;;;0.60;99.90;;;;;;4997950;28;20034;-79
2022/12/15 12:02:14;;;;;;;42.97;20.55;;;1.50;99.90;;;;;;4964469;28;20160;-79
2022/12/15 12:04:51;;;;;;;44.47;21.98;;;2.00;99.90;;;;;;4966765;28;20054;-79
2022/12/15 12:07:28;;;;;;;43.88;22.15;;;2.50;99.90;;;;;;4966959;28;20053;-79
2022/12/15 12:09:59;;;;;;;40.85;18.45;;;2.80;99.90;;;;;;4979647;28;20023;-79
2022/12/15 12:12:52;;;;;;;46.50;21.13;;;3.10;99.90;;;;;;4982769;28;20719;-79
2022/12/15 12:15:54;;;;;;;50.75;23.05;;;3.20;99.90;;;;;;4960054;28;20023;-79
2022/12/15 12:18:29;;;;;;;45.78;22.52;;;3.70;99.90;;;;;;4998691;28;20038;-79
2022/12/15 12:21:09;;;;;;;50.90;23.83;;;4.00;99.90;;;;;;4967444;28;20479;-79
2022/12/15 12:23:36;;;;;;;46.58;22.92;;;4.00;99.90;;;;;;4981325;28;20389;-79
2022/12/15 12:26:10;;;;;;;44.72;22.08;;;4.10;99.90;;;;;;4967819;28;20171;-79
2022/12/15 12:28:48;;;;;;;48.25;21.30;;;4.10;99.90;;;;;;5001515;28;20037;-80
2022/12/15 12:31:31;;;;;;;38.78;20.08;;;4.10;99.90;;;;;;4968522;28;20046;-79
2022/12/15 12:34:00;;;;;;;43.65;21.83;;;4.10;99.90;;;;;;4982612;28;20039;-79
2022/12/15 12:36:26;;;;;;;47.55;25.58;;;3.90;99.90;;;;;;5001855;28;20035;-80
2022/12/15 12:38:54;;;;;;;40.97;19.73;;;3.80;99.90;;;;;;4968161;28;20833;-80
2022/12/15 12:41:32;;;;;;;43.15;19.80;;;3.80;99.90;;;;;;4967012;28;22475;-79
2022/12/15 12:44:23;;;;;;;43.00;21.38;;;3.90;99.90;;;;;;4981449;28;20097;-80
2022/12/15 12:46:50;;;;;;;45.28;22.83;;;3.90;99.90;;;;;;4991277;28;20042;-80
2022/12/15 12:49:38;;;;;;;42.63;21.58;;;3.90;99.90;;;;;;4986287;28;20089;-79
2022/12/15 12:52:04;;;;;;;61.85;32.05;;;3.90;99.90;;;;;;4984107;28;20031;-79
2022/12/15 12:54:33;;;;;;;51.05;25.75;;;3.80;99.90;;;;;;4969137;28;20065;-79
2022/12/15 12:56:58;;;;;;;41.42;20.45;;;3.50;99.90;;;;;;4984577;28;20038;-79
2022/12/15 12:59:31;;;;;;;43.53;22.20;;;3.60;99.90;;;;;;4969694;28;20037;-79
2022/12/15 13:02:20;;;;;;;49.00;26.48;;;3.20;99.90;;;;;;4978427;28;20494;-80
2022/12/15 13:05:03;;;;;;;41.10;21.20;;;3.60;99.90;;;;;;4977500;28;20061;-79
2022/12/15 13:07:37;;;;;;;68.78;34.65;;;3.70;99.90;;;;;;4982790;28;20528;-79
2022/12/15 13:10:16;;;;;;;62.25;31.95;;;3.10;99.90;;;;;;4983284;28;20058;-80
2022/12/15 13:12:45;;;;;;;58.17;32.80;;;1.90;99.90;;;;;;4946828;28;20100;-79
2022/12/15 13:15:17;;;;;;;61.78;32.22;;;1.60;99.90;;;;;;5001918;28;20113;-80
2022/12/15 13:17:47;;;;;;;63.40;34.20;;;2.40;99.90;;;;;;4978033;28;20105;-79
2022/12/15 13:20:18;;;;;;;50.05;24.95;;;2.00;99.90;;;;;;4964641;28;20121;-79
2022/12/15 13:22:44;;;;;;;65.00;34.78;;;2.70;99.90;;;;;;4978332;28;20038;-79
2022/12/15 13:25:32;;;;;;;46.40;21.58;;;2.70;99.90;;;;;;4941174;28;20041;-79
2022/12/15 13:27:58;;;;;;;41.45;21.20;;;3.10;99.90;;;;;;4956292;28;20406;-80
2022/12/15 13:30:24;;;;;;;44.95;21.40;;;3.50;99.90;;;;;;4967992;28;20030;-80
2022/12/15 13:32:53;;;;;;;65.97;33.22;;;3.80;99.90;;;;;;4950652;28;20527;-79
2022/12/15 13:35:28;;;;;;;51.17;26.45;;;3.70;99.90;;;;;;4950189;28;20846;-79
2022/12/15 13:37:58;;;;;;;45.33;21.47;;;3.30;99.90;;;;;;4947102;28;20319;-79
2022/12/15 13:40:31;;;;;;;40.58;20.67;;;3.30;99.90;;;;;;4981890;28;20034;-79
2022/12/15 13:43:03;;;;;;;54.97;28.60;;;3.90;99.90;;;;;;4994270;28;20039;-79
2022/12/15 13:45:51;;;;;;;46.75;24.80;;;3.30;99.90;;;;;;4999248;28;20106;-80
2022/12/15 13:48:23;;;;;;;59.00;30.52;;;3.60;99.90;;;;;;4998743;28;20030;-80
2022/12/15 13:50:50;;;;;;;43.85;24.55;;;2.80;99.90;;;;;;4998133;28;20042;-79
2022/12/15 13:53:19;;;;;;;37.78;20.60;;;2.60;99.90;;;;;;4975674;28;20041;-79
2022/12/15 13:55:56;;;;;;;49.08;24.40;;;3.30;99.90;;;;;;4981044;28;20041;-79
2022/12/15 13:58:22;;;;;;;57.85;29.63;;;3.40;99.90;;;;;;4969357;28;20030;-79
2022/12/15 14:00:55;;;;;;;37.20;19.08;;;3.30;99.90;;;;;;4966210;28;20038;-79
2022/12/15 14:03:20;;;;;;;39.47;20.23;;;3.40;99.90;;;;;;4983706;28;20035;-79
2022/12/15 14:05:53;;;;;;;40.63;20.60;;;3.70;99.90;;;;;;4984217;28;20042;-79
2022/12/15 14:08:20;;;;;;;45.22;23.67;;;4.00;99.90;;;;;;5001050;28;20506;-80
2022/12/15 14:10:49;;;;;;;41.40;23.42;;;4.00;99.90;;;;;;4984074;28;20375;-79
2022/12/15 14:13:23;;;;;;;41.45;23.08;;;3.90;99.90;;;;;;4967220;28;20050;-79
2022/12/15 14:16:16;;;;;;;40.08;20.45;;;4.10;99.90;;;;;;4999178;28;20034;-79
2022/12/15 14:18:42;;;;;;;40.25;20.83;;;4.00;99.90;;;;;;4996676;28;20558;-79
2022/12/15 14:21:19;;;;;;;36.60;18.88;;;4.20;99.90;;;;;;4968049;28;20069;-79
2022/12/15 14:23:45;;;;;;;37.78;20.42;;;4.10;99.90;;;;;;4980079;28;20524;-79
2022/12/15 14:26:11;;;;;;;40.25;20.92;;;3.90;99.90;;;;;;4964579;28;20034;-79
2022/12/15 14:28:42;;;;;;;61.25;32.55;;;3.80;99.90;;;;;;4953640;28;20030;-79
2022/12/15 14:31:12;;;;;;;58.40;28.17;;;2.70;99.90;;;;;;4965701;28;20031;-80
2022/12/15 14:33:38;;;;;;;57.53;28.98;;;1.80;99.90;;;;;;5001147;28;20372;-79
2022/12/15 14:36:06;;;;;;;33.83;18.50;;;2.00;99.90;;;;;;4970188;28;20030;-79
2022/12/15 14:38:44;;;;;;;47.78;24.60;;;2.40;99.90;;;;;;4967848;28;20070;-79
2022/12/15 14:41:17;;;;;;;37.70;20.23;;;2.70;99.90;;;;;;4956488;28;20026;-79
2022/12/15 14:43:43;;;;;;;35.60;18.13;;;3.20;99.90;;;;;;4969684;28;20117;-80
2022/12/15 14:46:10;;;;;;;45.67;24.48;;;3.30;99.90;;;;;;4985976;28;20486;-79
2022/12/15 14:48:49;;;;;;;36.63;19.30;;;3.20;99.90;;;;;;4970659;28;20037;-79
2022/12/15 14:51:14;;;;;;;51.15;26.35;;;3.20;99.90;;;;;;4967490;28;20057;-79
2022/12/15 14:53:41;;;;;;;50.97;27.52;;;3.00;99.90;;;;;;4950639;28;20039;-80
2022/12/15 14:56:26;;;;;;;51.63;27.48;;;2.00;99.90;;;;;;4972353;28;20030;-79
2022/12/15 14:59:04;;;;;;;37.38;19.63;;;1.40;99.90;;;;;;4973409;28;20026;-79
2022/12/15 15:01:34;;;;;;;33.65;18.05;;;1.90;99.90;;;;;;5005703;28;20038;-79
2022/12/15 15:04:03;;;;;;;35.60;19.13;;;2.60;99.90;;;;;;4971130;28;20081;-79
2022/12/15 15:06:32;;;;;;;35.92;19.65;;;2.80;99.90;;;;;;4983134;28;20150;-79
2022/12/15 15:09:08;;;;;;;37.28;19.25;;;2.90;99.90;;;;;;4972667;28;20414;-79
2022/12/15 15:11:36;;;;;;;56.33;27.60;;;2.80;99.90;;;;;;4987770;28;20037;-80
2022/12/15 15:14:15;;;;;;;57.50;31.65;;;2.50;99.90;;;;;;4985789;28;20450;-80